Paddy Guidry — WTG3900 — position and weather

sailwx.info

Track history (hours):
 
Tides and Currents Weather Stations Pressure Air Temp Water Temp Dewpoint Dewpoint Depression Visibility Wind Speed Wind Dir Waves Ship Positions

Paddy Guidry

Owner: CAPTAIN TIMMY INC, GALLIANO, LA. More information available from US FCC via Universal Licensing System and Coast Guard Vessel Documentation Center.

Last reported at 2017-Jul-28 17:42 UTC. Time now 2017-Sep-21 01:51 UTC.
Position N 29°34' W 090°33'.
Warning: this ship's position is 54 days out of date.

; draft 1.5 m.

Type: Tug. MMSI: 366998310.

Date/timePositionNaut miles runAvg speedWind from/ knotsBaromVisibWave heightAir tempDewpointWater temp
2017-Jul-28 17:42N 29°34' W 090°33'1 7.0
2017-Jul-28 17:29N 29°34' W 090°35'3 5.6
2017-Jul-28 17:00N 29°35' W 090°38'2 3.9
2017-Jul-28 16:29N 29°36' W 090°40'0 0.0
2017-Jul-28 16:00N 29°36' W 090°40'0 0.0
2017-Jul-28 15:30N 29°36' W 090°40'0 0.0
2017-Jul-28 15:00N 29°36' W 090°40'0 0.0
2017-Jul-28 14:31N 29°36' W 090°40'0 0.1
2017-Jul-28 14:01N 29°36' W 090°40'0 0.0
2017-Jul-28 13:30N 29°36' W 090°40'0 0.0
2017-Jul-28 13:01N 29°36' W 090°40'0 0.0
2017-Jul-28 12:30N 29°36' W 090°40'0 0.0
2017-Jul-28 12:00N 29°36' W 090°40'0 0.0
2017-Jul-28 11:30N 29°36' W 090°40'0 0.0
2017-Jul-28 11:00N 29°36' W 090°40'0 0.4
2017-Jul-28 10:30N 29°36' W 090°40'0 0.1
2017-Jul-28 10:00N 29°36' W 090°40'0 0.4
2017-Jul-28 09:30N 29°36' W 090°40'0 0.0
2017-Jul-28 09:01N 29°36' W 090°40'0 0.0
2017-Jul-28 08:31N 29°36' W 090°40'0 0.0
2017-Jul-28 08:00N 29°36' W 090°40'0 0.0
2017-Jul-28 07:30N 29°36' W 090°40'0 0.0
2017-Jul-28 07:00N 29°36' W 090°40'0 0.0
2017-Jul-28 06:31N 29°36' W 090°40'0 0.0
2017-Jul-28 06:01N 29°36' W 090°40'0 0.0
2017-Jul-28 05:30N 29°36' W 090°40'0 0.0
2017-Jul-28 05:00N 29°36' W 090°40'0 0.0
2017-Jul-28 04:30N 29°36' W 090°40'0 0.0
2017-Jul-28 04:01N 29°36' W 090°40'0 0.0
2017-Jul-28 03:31N 29°36' W 090°40'0 0.0
2017-Jul-28 03:00N 29°36' W 090°40'0 0.0
2017-Jul-28 02:31N 29°36' W 090°40'0 0.0
2017-Jul-28 02:01N 29°36' W 090°40'1 1.3
2017-Jul-28 01:31N 29°36' W 090°40'2 3.6
2017-Jul-28 01:00N 29°36' W 090°43'2 4.7
2017-Jul-28 00:30N 29°34' W 090°43'3 5.9
2017-Jul-28 00:00N 29°31' W 090°42'3 6.9
2017-Jul-27 23:31N 29°28' W 090°43'5 0.3
2017-Jul-27 08:03N 29°25' W 090°49'0 4.1
2017-Jul-27 08:00N 29°25' W 090°48'2 3.5
2017-Jul-27 07:30N 29°25' W 090°47'2 3.7
2017-Jul-27 06:59N 29°24' W 090°45'2 3.3
2017-Jul-27 06:24N 29°25' W 090°43'2 5.8
2017-Jul-27 06:00N 29°28' W 090°43'3 5.8
2017-Jul-27 05:30N 29°31' W 090°43'3 5.3
2017-Jul-27 05:01N 29°33' W 090°42'2 4.0
2017-Jul-27 04:30N 29°35' W 090°43'2 3.6
2017-Jul-27 04:00N 29°37' W 090°42'2 4.3
2017-Jul-27 03:31N 29°36' W 090°40'0 0.1
2017-Jul-27 03:00N 29°36' W 090°40'0 0.0
2017-Jul-27 02:31N 29°36' W 090°40'0 0.0
2017-Jul-27 02:00N 29°36' W 090°40'1 2.3
2017-Jul-27 01:31N 29°35' W 090°39'3 5.4
2017-Jul-27 01:01N 29°35' W 090°36'3 6.2
2017-Jul-27 00:31N 29°34' W 090°32'  
Track history (hours):
 
Tides and Currents Weather Stations Pressure Air Temp Water Temp Dewpoint Dewpoint Depression Visibility Wind Speed Wind Dir Waves Ship Positions

Paddy Guidry

Owner: CAPTAIN TIMMY INC, GALLIANO, LA. More information available from US FCC via Universal Licensing System and Coast Guard Vessel Documentation Center.

Last reported at 2017-Jul-28 17:42 UTC. Time now 2017-Sep-21 01:51 UTC.
Position N 29°34' W 090°33'.
Warning: this ship's position is 54 days out of date.

; draft 1.5 m.

Type: Tug. MMSI: 366998310.

Date/timePositionNaut miles runAvg speedWind from/ knotsBaromVisibWave heightAir tempDewpointWater temp
2017-Jul-28 17:42N 29°34' W 090°33'1 7.0
2017-Jul-28 17:29N 29°34' W 090°35'3 5.6
2017-Jul-28 17:00N 29°35' W 090°38'2 3.9
2017-Jul-28 16:29N 29°36' W 090°40'0 0.0
2017-Jul-28 16:00N 29°36' W 090°40'0 0.0
2017-Jul-28 15:30N 29°36' W 090°40'0 0.0
2017-Jul-28 15:00N 29°36' W 090°40'0 0.0
2017-Jul-28 14:31N 29°36' W 090°40'0 0.1
2017-Jul-28 14:01N 29°36' W 090°40'0 0.0
2017-Jul-28 13:30N 29°36' W 090°40'0 0.0
2017-Jul-28 13:01N 29°36' W 090°40'0 0.0
2017-Jul-28 12:30N 29°36' W 090°40'0 0.0
2017-Jul-28 12:00N 29°36' W 090°40'0 0.0
2017-Jul-28 11:30N 29°36' W 090°40'0 0.0
2017-Jul-28 11:00N 29°36' W 090°40'0 0.4
2017-Jul-28 10:30N 29°36' W 090°40'0 0.1
2017-Jul-28 10:00N 29°36' W 090°40'0 0.4
2017-Jul-28 09:30N 29°36' W 090°40'0 0.0
2017-Jul-28 09:01N 29°36' W 090°40'0 0.0
2017-Jul-28 08:31N 29°36' W 090°40'0 0.0
2017-Jul-28 08:00N 29°36' W 090°40'0 0.0
2017-Jul-28 07:30N 29°36' W 090°40'0 0.0
2017-Jul-28 07:00N 29°36' W 090°40'0 0.0
2017-Jul-28 06:31N 29°36' W 090°40'0 0.0
2017-Jul-28 06:01N 29°36' W 090°40'0 0.0
2017-Jul-28 05:30N 29°36' W 090°40'0 0.0
2017-Jul-28 05:00N 29°36' W 090°40'0 0.0
2017-Jul-28 04:30N 29°36' W 090°40'0 0.0
2017-Jul-28 04:01N 29°36' W 090°40'0 0.0
2017-Jul-28 03:31N 29°36' W 090°40'0 0.0
2017-Jul-28 03:00N 29°36' W 090°40'0 0.0
2017-Jul-28 02:31N 29°36' W 090°40'0 0.0
2017-Jul-28 02:01N 29°36' W 090°40'1 1.3
2017-Jul-28 01:31N 29°36' W 090°40'2 3.6
2017-Jul-28 01:00N 29°36' W 090°43'2 4.7
2017-Jul-28 00:30N 29°34' W 090°43'3 5.9
2017-Jul-28 00:00N 29°31' W 090°42'3 6.9
2017-Jul-27 23:31N 29°28' W 090°43'5 0.3
2017-Jul-27 08:03N 29°25' W 090°49'0 4.1
2017-Jul-27 08:00N 29°25' W 090°48'2 3.5
2017-Jul-27 07:30N 29°25' W 090°47'2 3.7
2017-Jul-27 06:59N 29°24' W 090°45'2 3.3
2017-Jul-27 06:24N 29°25' W 090°43'2 5.8
2017-Jul-27 06:00N 29°28' W 090°43'3 5.8
2017-Jul-27 05:30N 29°31' W 090°43'3 5.3
2017-Jul-27 05:01N 29°33' W 090°42'2 4.0
2017-Jul-27 04:30N 29°35' W 090°43'2 3.6
2017-Jul-27 04:00N 29°37' W 090°42'2 4.3
2017-Jul-27 03:31N 29°36' W 090°40'0 0.1
2017-Jul-27 03:00N 29°36' W 090°40'0 0.0
2017-Jul-27 02:31N 29°36' W 090°40'0 0.0
2017-Jul-27 02:00N 29°36' W 090°40'1 2.3
2017-Jul-27 01:31N 29°35' W 090°39'3 5.4
2017-Jul-27 01:01N 29°35' W 090°36'3 6.2
2017-Jul-27 00:31N 29°34' W 090°32'  

Dump ship's entire track history